Tymvou, Cyprus
Current Conditions -  °F | °C
As of 12:20 PM on Monday 20 Oct 2014 (Local Time) from LCEN Reporting Station
Clear Clear  
Wind Chill: 72°   Ceiling: Unl
Heat Index: 72°   Visibility: 6mi
Dew Point: 28°   Wind: 13mph
Humidity: 20%   Direction: 350°N
Pressure: 29.91"   Gusts: NA
Location:  35.13°N, 33.52°E
Report Text: LCEN 200920Z 35011KT CAVOK 22/M02 Q1013 NOSIG
Loading
Personal Weather Stations






























Interactive Weather Map
Tropical Storm Tracking
New forecast layout! Learn more

10-Day Weather Forecast

Advertisements
Track Severe Weather on mobile